createdAt,value
2023-04-09T00:02:36.473Z,1.22
2023-04-09T00:05:10.097Z,1.18
2023-04-09T00:07:54.123Z,1.16
2023-04-09T00:10:37.420Z,1.14
2023-04-09T00:16:26.219Z,1.16
2023-04-09T00:19:19.113Z,1.21
2023-04-09T00:22:12.237Z,1.26
2023-04-09T00:25:05.291Z,1.33
2023-04-09T00:27:47.160Z,1.38
2023-04-09T00:30:40.063Z,1.37
2023-04-09T00:33:22.833Z,1.34
2023-04-09T00:36:15.656Z,1.29
2023-04-09T00:38:48.805Z,1.27
2023-04-09T00:41:22.338Z,1.25
2023-04-09T00:44:00.401Z,1.22
2023-04-09T00:46:34.323Z,1.22
2023-04-09T00:49:07.119Z,1.23
2023-04-09T00:51:40.722Z,1.22
2023-04-09T00:54:13.997Z,1.25
2023-04-09T00:56:46.987Z,1.28
2023-04-09T00:59:19.468Z,1.33
2023-04-09T01:01:54.839Z,1.37
2023-04-09T01:04:29.828Z,1.40
2023-04-09T01:07:12.645Z,1.43
2023-04-09T01:09:56.699Z,1.42
2023-04-09T01:12:38.239Z,1.38
2023-04-09T01:15:16.523Z,1.36
2023-04-09T01:17:54.626Z,1.37
2023-04-09T01:20:38.745Z,1.40
2023-04-09T01:23:20.841Z,1.44
2023-04-09T01:26:06.058Z,1.48
2023-04-09T01:28:54.737Z,1.54
2023-04-09T01:31:31.092Z,1.58
2023-04-09T01:34:05.106Z,1.62
2023-04-09T01:36:43.458Z,1.64
2023-04-09T01:39:17.990Z,1.65
2023-04-09T01:41:54.353Z,1.63
2023-04-09T01:44:30.955Z,1.63
2023-04-09T01:47:07.219Z,1.67
2023-04-09T01:49:44.703Z,1.72
2023-04-09T01:52:17.504Z,1.76
2023-04-09T01:54:53.036Z,1.81
2023-04-09T01:57:25.804Z,1.82
2023-04-09T02:00:01.108Z,1.84
2023-04-09T02:02:48.464Z,1.88
2023-04-09T02:05:24.264Z,1.92
2023-04-09T02:08:13.977Z,1.96
2023-04-09T02:10:57.162Z,1.99
2023-04-09T02:13:34.940Z,2.04
2023-04-09T02:16:09.874Z,2.10
2023-04-09T02:18:54.586Z,2.13
2023-04-09T02:21:28.717Z,2.18
2023-04-09T02:24:12.362Z,2.22
2023-04-09T02:26:47.936Z,2.25
2023-04-09T02:29:20.692Z,2.24
2023-04-09T02:31:53.696Z,2.22
2023-04-09T02:34:26.626Z,2.20
2023-04-09T02:37:02.113Z,2.20
2023-04-09T02:39:34.643Z,2.19
2023-04-09T02:42:08.438Z,2.16
2023-04-09T02:44:41.096Z,2.15
2023-04-09T02:47:14.068Z,2.16
2023-04-09T02:49:49.645Z,2.17
2023-04-09T02:52:33.505Z,2.20
2023-04-09T02:55:16.333Z,2.20
2023-04-09T02:58:09.282Z,2.20
2023-04-09T03:00:52.051Z,2.22
2023-04-09T03:03:31.066Z,2.23
2023-04-09T03:06:08.683Z,2.22
2023-04-09T03:08:44.477Z,2.21
2023-04-09T03:11:17.435Z,2.24
2023-04-09T03:13:53.081Z,2.26
2023-04-09T03:16:27.748Z,2.28
2023-04-09T03:19:02.977Z,2.29
2023-04-09T03:21:35.733Z,2.33
2023-04-09T03:24:09.195Z,2.39
2023-04-09T03:26:42.216Z,2.47
2023-04-09T03:29:17.474Z,2.54
2023-04-09T03:32:01.000Z,2.59
2023-04-09T03:34:33.625Z,2.65
2023-04-09T03:37:13.792Z,2.69
2023-04-09T03:39:47.475Z,2.70
2023-04-09T03:42:20.368Z,2.72
2023-04-09T03:44:57.962Z,2.73
2023-04-09T03:47:38.217Z,2.71
2023-04-09T03:50:21.697Z,2.69
2023-04-09T03:52:58.781Z,2.69
2023-04-09T03:55:31.542Z,2.74
2023-04-09T03:58:05.294Z,2.79
2023-04-09T04:00:41.625Z,2.86
2023-04-09T04:03:27.682Z,2.94
2023-04-09T04:06:22.043Z,3.02
2023-04-09T04:09:00.946Z,3.08
2023-04-09T04:11:40.827Z,3.15
2023-04-09T04:14:16.868Z,3.19
2023-04-09T04:16:54.253Z,3.20
2023-04-09T04:19:46.918Z,3.23
2023-04-09T04:22:23.307Z,3.29
2023-04-09T04:25:01.365Z,3.37
2023-04-09T04:27:37.816Z,3.44
2023-04-09T04:30:21.756Z,3.49
2023-04-09T04:33:02.977Z,3.51
2023-04-09T04:35:41.198Z,3.52
2023-04-09T04:38:17.728Z,3.58
2023-04-09T04:41:01.358Z,3.67
2023-04-09T04:43:45.127Z,3.77
2023-04-09T04:46:24.150Z,3.87
2023-04-09T04:48:59.649Z,3.94
2023-04-09T04:51:33.548Z,4.03
2023-04-09T04:54:10.601Z,4.18
2023-04-09T04:56:46.856Z,4.33
2023-04-09T04:59:44.038Z,4.48
2023-04-09T05:02:19.378Z,4.61
2023-04-09T05:05:12.549Z,4.74
2023-04-09T05:07:53.100Z,4.82
2023-04-09T05:10:46.975Z,4.89
2023-04-09T05:13:30.148Z,4.98
2023-04-09T05:16:03.835Z,5.11
2023-04-09T05:18:37.410Z,5.19
2023-04-09T05:21:11.713Z,5.24
2023-04-09T05:23:46.494Z,5.27
2023-04-09T05:26:19.066Z,5.38
2023-04-09T05:28:58.689Z,5.50
2023-04-09T05:31:31.372Z,5.65
2023-04-09T05:34:08.950Z,5.82
2023-04-09T05:36:50.463Z,6.02
2023-04-09T05:39:26.686Z,6.21
2023-04-09T05:42:19.427Z,6.40
2023-04-09T05:45:18.456Z,6.59
2023-04-09T05:47:54.268Z,6.67
2023-04-09T05:50:31.831Z,6.71
2023-04-09T05:53:09.422Z,6.74
2023-04-09T05:55:44.840Z,6.82
2023-04-09T05:58:29.610Z,6.93
2023-04-09T06:01:10.335Z,7.08
2023-04-09T06:03:46.869Z,7.20
2023-04-09T06:06:30.412Z,7.39
2023-04-09T06:09:04.712Z,7.58
2023-04-09T06:11:43.513Z,7.83
2023-04-09T06:14:18.499Z,8.02
2023-04-09T06:16:51.019Z,8.11
2023-04-09T06:19:25.806Z,8.25
2023-04-09T06:21:58.622Z,8.43
2023-04-09T06:24:32.055Z,8.58
2023-04-09T06:27:05.009Z,8.69
2023-04-09T06:29:37.682Z,8.74
2023-04-09T06:32:12.143Z,8.76
2023-04-09T06:34:46.874Z,8.70
2023-04-09T06:37:21.669Z,8.66
2023-04-09T06:40:00.827Z,8.73
2023-04-09T06:42:35.422Z,8.92
2023-04-09T06:45:17.227Z,9.13
2023-04-09T06:47:50.138Z,9.25
2023-04-09T06:50:23.039Z,9.26
2023-04-09T06:52:57.783Z,9.13
2023-04-09T06:55:34.144Z,9.09
2023-04-09T06:58:07.189Z,9.19
2023-04-09T07:00:42.873Z,9.27
2023-04-09T07:03:16.119Z,9.33
2023-04-09T07:05:52.219Z,9.36
2023-04-09T07:08:25.113Z,9.31
2023-04-09T07:10:58.109Z,9.24
2023-04-09T07:13:31.405Z,9.22
2023-04-09T07:16:09.671Z,9.14
2023-04-09T07:18:42.131Z,9.16
2023-04-09T07:21:15.278Z,9.31
2023-04-09T07:23:48.181Z,9.51
2023-04-09T07:26:20.894Z,9.68
2023-04-09T07:28:56.256Z,9.80
2023-04-09T07:31:35.310Z,9.95
2023-04-09T07:34:08.998Z,10.08
2023-04-09T07:36:44.291Z,10.23
2023-04-09T07:39:21.254Z,10.34
2023-04-09T07:41:54.193Z,10.34
2023-04-09T07:44:27.200Z,10.32
2023-04-09T07:47:02.670Z,10.33
2023-04-09T07:49:40.625Z,10.42
2023-04-09T07:52:13.286Z,10.47
2023-04-09T07:54:45.828Z,10.40
2023-04-09T07:57:20.898Z,10.38
2023-04-09T07:59:54.211Z,10.67
2023-04-09T08:02:35.222Z,10.89
2023-04-09T08:05:12.294Z,10.93
2023-04-09T08:07:44.752Z,11.00
2023-04-09T08:10:17.203Z,11.06
2023-04-09T08:12:51.262Z,11.18
2023-04-09T08:15:24.263Z,11.40
2023-04-09T08:17:59.720Z,11.65
2023-04-09T08:20:45.735Z,11.82
2023-04-09T08:23:28.162Z,12.00
2023-04-09T08:26:00.722Z,12.19
2023-04-09T08:28:43.403Z,12.40
2023-04-09T08:31:26.609Z,12.61
2023-04-09T08:34:10.724Z,12.62
2023-04-09T08:36:49.986Z,12.46
2023-04-09T08:39:37.501Z,12.22
2023-04-09T08:42:16.261Z,12.17
2023-04-09T08:44:52.024Z,12.14
2023-04-09T08:47:30.560Z,12.26
2023-04-09T08:50:12.872Z,12.38
2023-04-09T08:52:50.649Z,12.48
2023-04-09T08:55:31.444Z,12.70
2023-04-09T08:58:15.604Z,13.04
2023-04-09T09:00:51.577Z,13.24
2023-04-09T09:03:53.390Z,13.40
2023-04-09T09:06:32.881Z,13.46
2023-04-09T09:09:17.096Z,13.57
2023-04-09T09:12:11.565Z,13.80
2023-04-09T09:14:44.325Z,13.97
2023-04-09T09:17:20.286Z,13.97
2023-04-09T09:19:56.913Z,13.99
2023-04-09T09:22:57.867Z,14.10
2023-04-09T09:25:51.313Z,14.19
2023-04-09T09:28:37.969Z,14.27
2023-04-09T09:31:13.449Z,14.26
2023-04-09T09:34:01.337Z,14.38
2023-04-09T09:36:37.633Z,14.56
2023-04-09T09:39:12.332Z,14.68
2023-04-09T09:41:45.957Z,14.74
2023-04-09T09:44:34.034Z,14.73
2023-04-09T09:47:15.623Z,14.51
2023-04-09T09:49:58.363Z,14.22
2023-04-09T09:52:44.629Z,14.03
2023-04-09T09:55:22.637Z,13.87
2023-04-09T09:57:57.551Z,13.74
2023-04-09T10:00:51.824Z,13.74
2023-04-09T10:03:30.857Z,13.87
2023-04-09T10:06:04.881Z,14.02
2023-04-09T10:08:44.170Z,14.15
2023-04-09T10:11:16.878Z,14.31
2023-04-09T10:13:56.984Z,14.50
2023-04-09T10:19:20.827Z,14.80
2023-04-09T10:22:04.773Z,14.93
2023-04-09T10:24:42.308Z,15.07
2023-04-09T10:27:17.707Z,15.22
2023-04-09T10:29:52.181Z,15.43
2023-04-09T10:32:28.443Z,15.57
2023-04-09T10:35:07.180Z,15.78
2023-04-09T10:37:39.941Z,15.94
2023-04-09T10:40:22.726Z,16.08
2023-04-09T10:42:57.082Z,16.17
2023-04-09T10:45:42.826Z,16.31
2023-04-09T10:48:22.942Z,16.32
2023-04-09T10:50:58.148Z,16.34
2023-04-09T10:53:42.285Z,16.51
2023-04-09T10:56:19.190Z,16.77
2023-04-09T10:58:51.963Z,16.84
2023-04-09T11:01:28.806Z,16.74
2023-04-09T11:04:22.158Z,16.77
2023-04-09T11:06:58.017Z,16.85
2023-04-09T11:09:30.522Z,16.90
2023-04-09T11:12:03.796Z,16.82
2023-04-09T11:14:39.255Z,16.74
2023-04-09T11:17:22.891Z,16.73
2023-04-09T11:20:02.629Z,16.75
2023-04-09T11:22:57.556Z,16.66
2023-04-09T11:25:40.197Z,16.79
2023-04-09T11:28:16.928Z,17.09
2023-04-09T11:30:53.501Z,17.30
2023-04-09T11:33:35.662Z,17.44
2023-04-09T11:36:09.547Z,17.49
2023-04-09T11:38:45.536Z,17.57
2023-04-09T11:41:18.159Z,17.46
2023-04-09T11:43:54.908Z,17.17
2023-04-09T11:46:28.017Z,16.93
2023-04-09T11:49:04.030Z,16.68
2023-04-09T11:51:39.753Z,16.36
2023-04-09T11:54:15.572Z,15.99
2023-04-09T11:56:55.971Z,15.59
2023-04-09T11:59:32.848Z,15.23
2023-04-09T12:02:20.683Z,14.85
2023-04-09T12:05:06.489Z,14.57
2023-04-09T12:07:42.323Z,14.34
2023-04-09T12:10:27.883Z,14.20
2023-04-09T12:13:05.010Z,14.09
2023-04-09T12:15:41.291Z,14.05
2023-04-09T12:18:17.646Z,14.05
2023-04-09T12:20:53.314Z,14.09
2023-04-09T12:23:26.128Z,14.21
2023-04-09T12:26:00.859Z,14.35
2023-04-09T12:28:35.050Z,14.44
2023-04-09T12:31:17.749Z,14.46
2023-04-09T12:33:52.916Z,14.41
2023-04-09T12:36:26.597Z,14.38
2023-04-09T12:38:59.807Z,14.32
2023-04-09T12:41:32.774Z,14.31
2023-04-09T12:44:15.618Z,14.23
2023-04-09T12:46:48.523Z,14.11
2023-04-09T12:49:31.245Z,14.06
2023-04-09T12:52:07.102Z,13.96
2023-04-09T12:54:40.522Z,13.90
2023-04-09T12:57:13.105Z,13.86
2023-04-09T12:59:49.360Z,13.83
2023-04-09T13:02:23.238Z,13.86
2023-04-09T13:04:55.680Z,13.90
2023-04-09T13:07:31.049Z,13.97
2023-04-09T13:10:06.144Z,14.07
2023-04-09T13:12:48.989Z,14.27
2023-04-09T13:15:22.128Z,14.51
2023-04-09T13:17:54.779Z,14.79
2023-04-09T13:20:27.529Z,14.94
2023-04-09T13:23:01.609Z,15.00
2023-04-09T13:25:34.091Z,15.02
2023-04-09T13:28:07.328Z,14.99
2023-04-09T13:30:39.890Z,14.91
2023-04-09T13:33:15.745Z,14.84
2023-04-09T13:35:48.475Z,14.81
2023-04-09T13:38:21.177Z,14.81
2023-04-09T13:40:56.425Z,14.81
2023-04-09T13:43:29.510Z,14.82
2023-04-09T13:46:08.508Z,14.77
2023-04-09T13:48:41.434Z,14.69
2023-04-09T13:51:14.186Z,14.65
2023-04-09T13:53:48.318Z,14.60
2023-04-09T13:56:22.070Z,14.60
2023-04-09T13:59:14.970Z,14.59
2023-04-09T14:01:57.621Z,14.65
2023-04-09T14:04:50.549Z,14.74
2023-04-09T14:07:33.356Z,14.99
2023-04-09T14:10:19.644Z,15.06
2023-04-09T14:12:55.665Z,15.06
2023-04-09T14:15:28.356Z,15.14
2023-04-09T14:18:01.053Z,15.26
2023-04-09T14:20:54.462Z,15.36
2023-04-09T14:23:28.621Z,15.33
2023-04-09T14:26:04.794Z,15.27
2023-04-09T14:28:41.943Z,15.24
2023-04-09T14:31:26.144Z,15.11
2023-04-09T14:33:59.645Z,14.98
2023-04-09T14:36:32.360Z,14.86
2023-04-09T14:39:09.555Z,14.73
2023-04-09T14:41:45.505Z,14.65
2023-04-09T14:44:21.203Z,14.61
2023-04-09T14:46:55.102Z,14.55
2023-04-09T14:49:28.121Z,14.46
2023-04-09T14:52:03.000Z,14.42
2023-04-09T14:54:35.853Z,14.38
2023-04-09T14:57:08.797Z,14.30
2023-04-09T14:59:41.538Z,14.15
2023-04-09T15:02:17.752Z,14.05
2023-04-09T15:04:52.927Z,13.97
2023-04-09T15:07:28.510Z,13.92
2023-04-09T15:10:01.215Z,13.83
2023-04-09T15:12:35.581Z,13.77
2023-04-09T15:15:11.462Z,13.72
2023-04-09T15:17:46.682Z,13.69
2023-04-09T15:20:22.801Z,13.70
2023-04-09T15:22:56.016Z,13.66
2023-04-09T15:25:32.813Z,13.61
2023-04-09T15:28:06.536Z,13.46
2023-04-09T15:30:39.335Z,13.26
2023-04-09T15:33:15.605Z,13.07
2023-04-09T15:35:52.410Z,12.89
2023-04-09T15:38:25.253Z,12.62
2023-04-09T15:40:58.820Z,12.37
2023-04-09T15:43:31.771Z,12.19
2023-04-09T15:46:13.545Z,12.03
2023-04-09T15:48:46.665Z,11.96
2023-04-09T15:51:19.367Z,11.95
2023-04-09T15:53:55.168Z,11.92
2023-04-09T15:56:27.495Z,11.88
2023-04-09T15:59:05.356Z,11.87
2023-04-09T16:01:38.109Z,11.91
2023-04-09T16:04:10.779Z,11.90
2023-04-09T16:06:43.590Z,11.86
2023-04-09T16:09:15.907Z,11.77
2023-04-09T16:11:48.486Z,11.68
2023-04-09T16:14:21.308Z,11.60
2023-04-09T16:16:54.011Z,11.54
2023-04-09T16:19:26.803Z,11.47
2023-04-09T16:21:59.662Z,11.40
2023-04-09T16:24:33.531Z,11.32
2023-04-09T16:27:09.410Z,11.23
2023-04-09T16:29:42.455Z,11.13
2023-04-09T16:32:15.186Z,11.05
2023-04-09T16:34:56.636Z,10.97
2023-04-09T16:37:29.745Z,10.90
2023-04-09T16:40:04.942Z,10.80
2023-04-09T16:42:40.937Z,10.70
2023-04-09T16:45:20.550Z,10.59
2023-04-09T16:47:56.413Z,10.49
2023-04-09T16:50:31.940Z,10.41
2023-04-09T16:53:05.061Z,10.32
2023-04-09T16:55:48.172Z,10.21
2023-04-09T16:58:23.965Z,10.11
2023-04-09T17:00:57.568Z,10.02
2023-04-09T17:03:30.314Z,9.91
2023-04-09T17:06:07.082Z,9.82
2023-04-09T17:08:40.038Z,9.72
2023-04-09T17:11:17.501Z,9.63
2023-04-09T17:13:50.538Z,9.52
2023-04-09T17:16:23.804Z,9.44
2023-04-09T17:18:59.780Z,9.36
2023-04-09T17:21:32.678Z,9.30
2023-04-09T17:24:09.000Z,9.23
2023-04-09T17:26:41.863Z,9.16
2023-04-09T17:29:14.388Z,9.09
2023-04-09T17:31:48.886Z,9.02
2023-04-09T17:34:24.265Z,8.93
2023-04-09T17:37:00.261Z,8.81
2023-04-09T17:39:37.418Z,8.71
2023-04-09T17:42:11.853Z,8.62
2023-04-09T17:44:46.222Z,8.56
2023-04-09T17:47:19.352Z,8.49
2023-04-09T17:49:53.324Z,8.43
2023-04-09T17:52:29.226Z,8.37
2023-04-09T17:55:23.532Z,8.30
2023-04-09T17:58:11.590Z,8.22
2023-04-09T18:01:07.726Z,8.15
2023-04-09T18:03:52.660Z,8.06
2023-04-09T18:06:29.368Z,7.96
2023-04-09T18:09:22.483Z,7.87
2023-04-09T18:12:00.100Z,7.79
2023-04-09T18:14:53.039Z,7.70
2023-04-09T18:17:45.931Z,7.60
2023-04-09T18:20:26.412Z,7.52
2023-04-09T18:22:59.079Z,7.45
2023-04-09T18:25:31.529Z,7.37
2023-04-09T18:28:07.724Z,7.26
2023-04-09T18:30:43.591Z,7.15
2023-04-09T18:33:18.994Z,7.05
2023-04-09T18:36:12.481Z,6.96
2023-04-09T18:39:06.649Z,6.87
2023-04-09T18:41:59.722Z,6.79
2023-04-09T18:44:52.816Z,6.71
2023-04-09T18:47:34.828Z,6.64
2023-04-09T18:50:09.639Z,6.58
2023-04-09T18:52:52.083Z,6.54
2023-04-09T18:55:24.300Z,6.51
2023-04-09T18:57:57.522Z,6.48
2023-04-09T19:00:37.456Z,6.46
2023-04-09T19:03:31.121Z,6.42
2023-04-09T19:06:27.963Z,6.39
2023-04-09T19:09:20.941Z,6.35
2023-04-09T19:12:04.967Z,6.29
2023-04-09T19:14:38.092Z,6.26
2023-04-09T19:17:13.466Z,6.24
2023-04-09T19:19:49.444Z,6.23
2023-04-09T19:22:25.323Z,6.20
2023-04-09T19:24:59.603Z,6.16
2023-04-09T19:27:54.458Z,6.13
2023-04-09T19:30:50.993Z,6.07
2023-04-09T19:33:34.754Z,6.00
2023-04-09T19:36:18.268Z,5.89
2023-04-09T19:38:56.368Z,5.82
2023-04-09T19:41:49.019Z,5.75
2023-04-09T19:44:42.351Z,5.68
2023-04-09T19:47:17.929Z,5.63
2023-04-09T19:49:59.737Z,5.57
2023-04-09T19:52:33.212Z,5.53
2023-04-09T19:55:19.134Z,5.47
2023-04-09T19:58:06.637Z,5.41
2023-04-09T20:00:42.020Z,5.35
2023-04-09T20:03:23.090Z,5.29
2023-04-09T20:05:55.801Z,5.22
2023-04-09T20:08:28.829Z,5.17
2023-04-09T20:11:22.652Z,5.14
2023-04-09T20:14:06.302Z,5.14
2023-04-09T20:16:39.257Z,5.16
2023-04-09T20:19:11.906Z,5.19
2023-04-09T20:21:53.022Z,5.23
2023-04-09T20:24:28.779Z,5.27
2023-04-09T20:27:23.627Z,5.31
2023-04-09T20:29:59.134Z,5.36
2023-04-09T20:32:31.645Z,5.40
2023-04-09T20:35:09.662Z,5.44
2023-04-09T20:37:44.800Z,5.49
2023-04-09T20:40:17.654Z,5.53
2023-04-09T20:43:00.585Z,5.57
2023-04-09T20:45:43.170Z,5.62
2023-04-09T20:48:19.025Z,5.67
2023-04-09T20:51:09.446Z,5.71
2023-04-09T20:53:42.289Z,5.75
2023-04-09T20:56:26.588Z,5.78
2023-04-09T20:58:59.809Z,5.80
2023-04-09T21:01:33.448Z,5.84
2023-04-09T21:04:06.751Z,5.88
2023-04-09T21:06:50.834Z,5.93
2023-04-09T21:09:24.735Z,5.97
2023-04-09T21:12:07.898Z,6.00
2023-04-09T21:14:42.735Z,6.03
2023-04-09T21:17:20.330Z,6.08
2023-04-09T21:20:02.999Z,6.13
2023-04-09T21:22:38.553Z,6.18
2023-04-09T21:25:13.780Z,6.26
2023-04-09T21:27:59.489Z,6.33
2023-04-09T21:30:32.871Z,6.43
2023-04-09T21:33:09.994Z,6.52
2023-04-09T21:35:54.660Z,6.56
2023-04-09T21:38:47.407Z,6.64
2023-04-09T21:41:19.880Z,6.70
2023-04-09T21:43:52.553Z,6.78
2023-04-09T21:46:25.234Z,6.84
2023-04-09T21:49:05.976Z,6.88
2023-04-09T21:51:39.916Z,6.92
2023-04-09T21:54:12.639Z,6.95
2023-04-09T21:56:55.419Z,6.94
2023-04-09T21:59:38.122Z,6.93
2023-04-09T22:02:14.057Z,6.89
2023-04-09T22:04:46.748Z,6.87
2023-04-09T22:07:30.679Z,6.85
2023-04-09T22:10:03.346Z,6.86
2023-04-09T22:12:38.761Z,6.87
2023-04-09T22:15:13.308Z,6.91
2023-04-09T22:17:53.137Z,6.92
2023-04-09T22:20:29.366Z,6.91
2023-04-09T22:23:08.938Z,6.93
2023-04-09T22:25:41.662Z,6.94
2023-04-09T22:28:18.155Z,6.98
2023-04-09T22:30:53.425Z,7.04
2023-04-09T22:33:27.907Z,7.08
2023-04-09T22:36:12.292Z,7.15
2023-04-09T22:38:55.877Z,7.18
2023-04-09T22:41:31.012Z,7.12
2023-04-09T22:44:03.839Z,7.10
2023-04-09T22:46:36.715Z,7.09
2023-04-09T22:49:09.979Z,7.09
2023-04-09T22:51:43.932Z,7.05
2023-04-09T22:54:26.429Z,6.98
2023-04-09T22:56:59.128Z,6.98
2023-04-09T23:02:14.724Z,7.03
2023-04-09T23:04:50.342Z,7.00
2023-04-09T23:07:33.447Z,6.94
2023-04-09T23:10:14.211Z,6.90
2023-04-09T23:12:46.659Z,6.85
2023-04-09T23:15:19.798Z,6.80
2023-04-09T23:17:55.650Z,6.74
2023-04-09T23:20:30.583Z,6.68
2023-04-09T23:23:06.870Z,6.64
2023-04-09T23:25:39.704Z,6.61
2023-04-09T23:28:23.488Z,6.61
2023-04-09T23:31:05.848Z,6.63
2023-04-09T23:33:38.449Z,6.65
2023-04-09T23:36:11.693Z,6.67
2023-04-09T23:38:59.012Z,6.69
2023-04-09T23:41:41.694Z,6.72
2023-04-09T23:44:34.894Z,6.74
2023-04-09T23:47:12.016Z,6.74
2023-04-09T23:49:54.789Z,6.72
2023-04-09T23:52:52.557Z,6.66
2023-04-09T23:55:28.650Z,6.62
2023-04-09T23:58:01.754Z,6.64
